Ridgeville, SC

10:18 PM EST on February 13, 2016 (GMT -0500)
Summerville | | Change Station
CLOSE
Current Station
Airport
Location: Summerville,
Elevation: 56 ft
Nearby Weather Stations
Active Advisory: Flood Warning

Elev 56 ft 33.06 °N, 80.28 °W | Updated 3 minutes ago

Clear
Clear
36 °F
Feels Like 36 °F
N
0
Wind Variable Wind from North

Today
High -- | Low -- °F
--% Chance of Precip.
Yesterday
High -- | Low -- °F
Precip. -- in
Pressure 30.38 in
Visibility 10.0 miles
Clouds Clear
Dew Point 19 °F
Humidity 52%
Rainfall 0.00 in
Snow Depth Not available.
7:07 AM 6:04 PM
Waxing Crescent, 37% visible
METAR KDYB 140315Z AUTO 00000KT 10SM CLR 02/M07 A3038 RMK AO1
Pressure 30.38 in
Visibility 10.0 miles
Clouds Clear
Dew Point 19 °F
Humidity 52%
Rainfall 0.00 in
Snow Depth Not available.
7:07 AM 6:04 PM
Waxing Crescent, 37% visible
METAR KDYB 140315Z AUTO 00000KT 10SM CLR 02/M07 A3038 RMK AO1

10-Day Weather Forecast

Almanac

Astronomy

Feb. 13, 2016 Rise Set
Actual Time
Civil Twilight
Nautical Twilight
Astronomical Twilight
Moon
Length of Visible Light
Length of Day
Tomorrow will be .
, % of the Moon is Illuminated

Today's Extremes

State Highs State Lows

Community

WunderPhotos

Upload Photos

1,892,733 photos uploaded!

WunderBlog® & News

Nearby

Air Quality

  Air Quality AQ Index Pollutant
Not available.

Snow Depth

Station Depth Elevation

Earthquake Activity

City Distance Mag. Time & Date
Minimum magnitude displayed is 2.5.

Coastal Water Temperatures

Place Temperature

Stations

Nearby Weather Stations

Station Location Temp. Windchill Dew Point Humidity Wind Precip. Elev Updated Type
                   

Watches & Warnings

Flood Warning
Issued: 10:05 PM EST Feb. 13, 2016 – National Weather Service

The Flood Warning continues for
the edisto river near Givhans Ferry.
* At 9 PM Saturday the stage was 11.8 feet.
* Flood stage is 10.0 feet.
* Minor flooding is occurring.
* Forecast, the river will continue to fall.
* At 12.0 feet, most homes on happiness Lane are accessible only by
boat. Flooding also occurs along roadways south of Highway 17
alternate including Camp buddy Road.


Lat... Lon 3304 8065 3311 8062 3308 8036 3286 8036
          3286 8045 3302 8044